Time;durP1;ratioP1;P1;durP2;ratioP2;P2;SDS_P1;SDS_P2;PMS_P1;PMS_P2;Temp;Humidity;BMP_temperature;BMP_pressure;BME280_temperature;BME280_humidity;BME280_pressure;Samples;Min_cycle;Max_cycle;Signal;HPM_P1;HPM_P2
2021/12/03 00:00:14;;;;;;;22.17;9.52;;;;;;;;;;5031616;28;20055;-61
2021/12/03 00:02:41;;;;;;;16.23;8.30;;;;;;;;;;5033194;28;20063;-61
2021/12/03 00:05:09;;;;;;;17.42;7.70;;;;;;;;;;5035556;28;20413;-61
2021/12/03 00:07:40;;;;;;;19.35;8.52;;;;;;;;;;5035985;28;20506;-60
2021/12/03 00:10:08;;;;;;;19.65;8.13;;;;;;;;;;5035714;28;20053;-61
2021/12/03 00:12:36;;;;;;;20.55;8.05;;;;;;;;;;5035572;28;20049;-61
2021/12/03 00:15:03;;;;;;;17.50;7.50;;;;;;;;;;5036046;28;20650;-60
2021/12/03 00:17:30;;;;;;;19.10;8.27;;;;;;;;;;5035401;28;20068;-60
2021/12/03 00:19:57;;;;;;;17.90;9.13;;;;;;;;;;5035418;28;20406;-59
2021/12/03 00:22:24;;;;;;;20.73;8.98;;;;;;;;;;5035145;28;20056;-59
2021/12/03 00:24:53;;;;;;;21.05;9.55;;;;;;;;;;5035485;28;20053;-60
2021/12/03 00:27:20;;;;;;;19.27;8.23;;;;;;;;;;5035093;28;20490;-61
2021/12/03 00:29:47;;;;;;;19.45;7.88;;;;;;;;;;5035472;28;20047;-61
2021/12/03 00:32:14;;;;;;;18.58;8.70;;;;;;;;;;5035254;28;20552;-61
2021/12/03 00:34:41;;;;;;;17.75;9.02;;;;;;;;;;5035430;28;20410;-61
2021/12/03 00:37:08;;;;;;;17.73;9.18;;;;;;;;;;5035246;28;20045;-61
2021/12/03 00:39:35;;;;;;;20.00;9.57;;;;;;;;;;5035780;28;20497;-61
2021/12/03 00:42:04;;;;;;;22.83;9.52;;;;;;;;;;5035192;28;20060;-61
2021/12/03 00:44:31;;;;;;;19.70;8.60;;;;;;;;;;5035430;28;20057;-60
2021/12/03 00:46:59;;;;;;;17.27;7.40;;;;;;;;;;5035241;28;20418;-63
2021/12/03 00:49:27;;;;;;;20.55;9.68;;;;;;;;;;5034798;28;20046;-60
2021/12/03 00:51:54;;;;;;;19.08;8.85;;;;;;;;;;5035207;28;20060;-61
2021/12/03 00:54:21;;;;;;;20.58;8.02;;;;;;;;;;5034950;28;20045;-61
2021/12/03 00:56:48;;;;;;;17.55;8.55;;;;;;;;;;5034919;28;20053;-63
2021/12/03 00:59:17;;;;;;;19.92;8.38;;;;;;;;;;5034668;28;20056;-61
2021/12/03 01:01:44;;;;;;;23.48;9.43;;;;;;;;;;5034542;28;20049;-61
2021/12/03 01:04:11;;;;;;;17.58;7.78;;;;;;;;;;5034598;28;20061;-61
2021/12/03 01:06:38;;;;;;;21.55;9.88;;;;;;;;;;5034532;28;20045;-62
2021/12/03 01:09:05;;;;;;;22.92;9.48;;;;;;;;;;5034395;28;20060;-61
2021/12/03 01:11:32;;;;;;;19.63;8.70;;;;;;;;;;5034560;28;20090;-61
2021/12/03 01:14:01;;;;;;;17.20;8.60;;;;;;;;;;5033954;28;20042;-59
2021/12/03 01:16:29;;;;;;;19.17;8.07;;;;;;;;;;5034879;28;20487;-60
2021/12/03 01:18:58;;;;;;;18.40;8.82;;;;;;;;;;5034620;28;20125;-60
2021/12/03 01:21:25;;;;;;;24.67;8.80;;;;;;;;;;5034562;28;20233;-61
2021/12/03 01:23:53;;;;;;;20.85;9.82;;;;;;;;;;5034562;28;20049;-59
2021/12/03 01:26:21;;;;;;;19.70;8.90;;;;;;;;;;5034595;28;20049;-60
2021/12/03 01:28:48;;;;;;;20.92;9.43;;;;;;;;;;5034578;28;20053;-61
2021/12/03 01:31:17;;;;;;;19.83;8.88;;;;;;;;;;5034526;28;20049;-60
2021/12/03 01:33:47;;;;;;;20.17;9.18;;;;;;;;;;5034534;28;20053;-61
2021/12/03 01:36:15;;;;;;;20.10;9.25;;;;;;;;;;5034851;28;20045;-61
2021/12/03 01:38:43;;;;;;;21.77;8.70;;;;;;;;;;5034509;28;20050;-60
2021/12/03 01:41:10;;;;;;;19.92;8.98;;;;;;;;;;5034413;28;20053;-60
2021/12/03 01:43:37;;;;;;;18.70;8.55;;;;;;;;;;5034078;28;20053;-60
2021/12/03 01:46:07;;;;;;;21.63;9.07;;;;;;;;;;5034015;28;20059;-59
2021/12/03 01:48:34;;;;;;;21.88;9.57;;;;;;;;;;5033835;28;20120;-61
2021/12/03 01:51:03;;;;;;;20.10;9.25;;;;;;;;;;5034016;28;20060;-61
2021/12/03 01:53:33;;;;;;;18.88;10.02;;;;;;;;;;5033688;28;20050;-60
2021/12/03 01:56:03;;;;;;;24.97;9.63;;;;;;;;;;5033834;28;20269;-61
2021/12/03 01:58:30;;;;;;;20.00;9.68;;;;;;;;;;5033838;28;20053;-61
2021/12/03 02:01:00;;;;;;;19.98;9.68;;;;;;;;;;5033596;28;20410;-59
2021/12/03 02:03:30;;;;;;;20.50;10.43;;;;;;;;;;5033844;28;20053;-60
2021/12/03 02:05:58;;;;;;;20.48;9.38;;;;;;;;;;5034161;28;20053;-61
2021/12/03 02:08:27;;;;;;;19.38;8.30;;;;;;;;;;5034282;28;20502;-60
2021/12/03 02:10:55;;;;;;;21.50;10.57;;;;;;;;;;5034116;28;20060;-61
2021/12/03 02:13:22;;;;;;;18.48;8.07;;;;;;;;;;5034261;28;20056;-61
2021/12/03 02:15:49;;;;;;;18.80;8.32;;;;;;;;;;5034126;28;20065;-60
2021/12/03 02:18:17;;;;;;;19.02;8.25;;;;;;;;;;5033733;28;20045;-60
2021/12/03 02:20:46;;;;;;;17.75;8.27;;;;;;;;;;5033567;28;20056;-60
2021/12/03 02:23:15;;;;;;;18.63;9.07;;;;;;;;;;5033923;28;20077;-60
2021/12/03 02:25:42;;;;;;;17.80;8.38;;;;;;;;;;5032918;28;20144;-61
2021/12/03 02:28:10;;;;;;;18.60;8.73;;;;;;;;;;5033485;28;20061;-60
2021/12/03 02:30:38;;;;;;;15.85;8.05;;;;;;;;;;5033106;28;20423;-60
2021/12/03 02:33:05;;;;;;;16.48;7.80;;;;;;;;;;5033525;28;20063;-61
2021/12/03 02:35:32;;;;;;;19.05;8.30;;;;;;;;;;5033404;28;20129;-61
2021/12/03 02:38:00;;;;;;;19.02;8.60;;;;;;;;;;5033302;28;20053;-61
2021/12/03 02:40:27;;;;;;;19.50;8.70;;;;;;;;;;5033361;28;20067;-61
2021/12/03 02:42:54;;;;;;;18.65;8.93;;;;;;;;;;5033206;28;20049;-60
2021/12/03 02:45:22;;;;;;;17.42;8.45;;;;;;;;;;5032681;28;20060;-60
2021/12/03 02:47:50;;;;;;;18.35;8.30;;;;;;;;;;5032977;28;20422;-61
2021/12/03 02:50:19;;;;;;;20.58;9.13;;;;;;;;;;5033255;28;20049;-60
2021/12/03 02:52:48;;;;;;;19.45;8.95;;;;;;;;;;5033010;28;20049;-61
2021/12/03 02:55:16;;;;;;;19.00;8.60;;;;;;;;;;5033153;28;20049;-61
2021/12/03 02:57:43;;;;;;;19.83;9.45;;;;;;;;;;5033321;28;20475;-61
2021/12/03 03:00:13;;;;;;;22.45;9.32;;;;;;;;;;5032828;28;20061;-60
2021/12/03 03:02:41;;;;;;;20.00;9.15;;;;;;;;;;5032777;28;20524;-59
2021/12/03 03:05:08;;;;;;;19.27;9.18;;;;;;;;;;5032437;28;20048;-60
2021/12/03 03:07:35;;;;;;;19.27;8.77;;;;;;;;;;5032362;28;20045;-61
2021/12/03 03:10:03;;;;;;;20.17;9.50;;;;;;;;;;5032570;28;20048;-61
2021/12/03 03:12:32;;;;;;;19.38;9.10;;;;;;;;;;5032661;28;20426;-60
2021/12/03 03:15:00;;;;;;;17.42;8.43;;;;;;;;;;5032407;28;20395;-60
2021/12/03 03:17:30;;;;;;;16.48;8.05;;;;;;;;;;5032119;28;20085;-61
2021/12/03 03:19:59;;;;;;;20.60;9.85;;;;;;;;;;5032243;28;20057;-60
2021/12/03 03:22:26;;;;;;;19.95;9.40;;;;;;;;;;5032206;28;20054;-59
2021/12/03 03:24:54;;;;;;;18.50;8.75;;;;;;;;;;5032298;28;20049;-61
2021/12/03 03:27:22;;;;;;;21.02;9.60;;;;;;;;;;5032146;28;20486;-61
2021/12/03 03:29:51;;;;;;;18.80;8.13;;;;;;;;;;5032033;28;20045;-61
2021/12/03 03:32:19;;;;;;;18.10;8.15;;;;;;;;;;5032004;28;20075;-60
2021/12/03 03:34:46;;;;;;;19.98;8.60;;;;;;;;;;5032179;28;20053;-60
2021/12/03 03:37:13;;;;;;;18.08;7.47;;;;;;;;;;5031848;28;20050;-60
2021/12/03 03:39:40;;;;;;;24.58;8.80;;;;;;;;;;5032251;28;20054;-60
2021/12/03 03:42:08;;;;;;;18.00;8.45;;;;;;;;;;5031910;28;20084;-60
2021/12/03 03:44:35;;;;;;;19.10;8.45;;;;;;;;;;5031965;28;20053;-60
2021/12/03 03:47:05;;;;;;;17.45;8.70;;;;;;;;;;5031806;28;20065;-58
2021/12/03 03:49:33;;;;;;;17.45;8.10;;;;;;;;;;5032226;28;20084;-61
2021/12/03 03:52:01;;;;;;;17.38;7.57;;;;;;;;;;5031843;28;20069;-61
2021/12/03 03:54:28;;;;;;;20.15;8.65;;;;;;;;;;5032180;28;20085;-61
2021/12/03 03:56:56;;;;;;;20.33;8.40;;;;;;;;;;5031948;28;20049;-60
2021/12/03 03:59:23;;;;;;;18.88;8.05;;;;;;;;;;5031913;28;20049;-61
2021/12/03 04:01:51;;;;;;;14.65;6.97;;;;;;;;;;5031576;28;20056;-61
2021/12/03 04:04:21;;;;;;;15.40;7.22;;;;;;;;;;5031988;28;20049;-61
2021/12/03 04:06:49;;;;;;;17.05;7.53;;;;;;;;;;5032530;28;20062;-61
2021/12/03 04:09:16;;;;;;;18.02;8.27;;;;;;;;;;5032028;28;20065;-60
2021/12/03 04:11:43;;;;;;;16.05;7.68;;;;;;;;;;5031601;28;20054;-60
2021/12/03 04:14:10;;;;;;;16.95;7.80;;;;;;;;;;5031779;28;20060;-60
2021/12/03 04:16:37;;;;;;;16.27;8.18;;;;;;;;;;5031571;28;20052;-61
2021/12/03 04:19:04;;;;;;;16.85;7.65;;;;;;;;;;5032204;28;20132;-61
2021/12/03 04:21:32;;;;;;;14.77;7.15;;;;;;;;;;5031925;28;20499;-61
2021/12/03 04:23:59;;;;;;;14.90;7.93;;;;;;;;;;5031724;28;20053;-60
2021/12/03 04:26:26;;;;;;;15.48;8.05;;;;;;;;;;5031720;28;20053;-61
2021/12/03 04:28:53;;;;;;;20.45;8.80;;;;;;;;;;5031437;28;20065;-61
2021/12/03 04:31:20;;;;;;;19.88;8.52;;;;;;;;;;5031246;28;20052;-62
2021/12/03 04:33:47;;;;;;;18.48;8.10;;;;;;;;;;5031547;28;20049;-61
2021/12/03 04:36:14;;;;;;;19.80;8.70;;;;;;;;;;5031540;28;20045;-60
2021/12/03 04:38:43;;;;;;;18.30;9.15;;;;;;;;;;5031236;28;20049;-60
2021/12/03 04:41:10;;;;;;;16.70;7.97;;;;;;;;;;5031680;28;20056;-61
2021/12/03 04:43:37;;;;;;;16.75;8.95;;;;;;;;;;5031576;28;20521;-61
2021/12/03 04:46:04;;;;;;;17.20;8.25;;;;;;;;;;5031302;28;20053;-61
2021/12/03 04:48:31;;;;;;;18.05;8.27;;;;;;;;;;5032811;28;20052;-60
2021/12/03 04:50:58;;;;;;;18.42;8.98;;;;;;;;;;5034791;28;20049;-61
2021/12/03 04:53:25;;;;;;;17.02;8.48;;;;;;;;;;5034669;28;20495;-59
2021/12/03 04:55:53;;;;;;;19.90;8.32;;;;;;;;;;5034823;28;20053;-60
2021/12/03 04:58:21;;;;;;;17.08;7.90;;;;;;;;;;5034962;28;20060;-61
2021/12/03 05:00:50;;;;;;;16.60;8.18;;;;;;;;;;5034868;28;20056;-61
2021/12/03 05:03:18;;;;;;;16.92;7.47;;;;;;;;;;5034799;28;20053;-60
2021/12/03 05:05:50;;;;;;;17.08;7.93;;;;;;;;;;5035311;28;20513;-61
2021/12/03 05:08:17;;;;;;;15.75;7.80;;;;;;;;;;5034380;28;20084;-59
2021/12/03 05:10:45;;;;;;;13.52;7.20;;;;;;;;;;5034474;28;20045;-60
2021/12/03 05:13:16;;;;;;;14.98;7.85;;;;;;;;;;5034565;28;20399;-60
2021/12/03 05:15:44;;;;;;;15.73;8.30;;;;;;;;;;5034806;28;20124;-61
2021/12/03 05:18:14;;;;;;;12.50;7.53;;;;;;;;;;5034259;28;20253;-60
2021/12/03 05:20:41;;;;;;;15.63;8.23;;;;;;;;;;5034390;28;20396;-59
2021/12/03 05:23:11;;;;;;;17.13;7.13;;;;;;;;;;5034532;28;20055;-63
2021/12/03 05:25:39;;;;;;;17.50;7.93;;;;;;;;;;5034485;28;20057;-61
2021/12/03 05:28:07;;;;;;;17.30;8.02;;;;;;;;;;5034198;28;20053;-60
2021/12/03 05:30:37;;;;;;;16.20;7.90;;;;;;;;;;5033975;28;20049;-61
2021/12/03 05:33:04;;;;;;;13.98;7.93;;;;;;;;;;5056267;22;20115;-79
2021/12/03 05:35:31;;;;;;;13.65;7.25;;;;;;;;;;5038125;28;20057;-80
2021/12/03 05:37:58;;;;;;;14.45;7.22;;;;;;;;;;5045294;28;20045;-78
2021/12/03 05:40:25;;;;;;;14.48;7.18;;;;;;;;;;5050461;28;20049;-79
2021/12/03 05:42:52;;;;;;;15.50;7.60;;;;;;;;;;5049890;28;20076;-79
2021/12/03 05:45:23;;;;;;;15.57;7.47;;;;;;;;;;5049629;28;20050;-79
2021/12/03 05:47:52;;;;;;;;;;;;;;;;;;5042679;28;20105;-80
2021/12/03 05:50:19;;;;;;;15.90;7.80;;;;;;;;;;5038655;28;19924;-79
2021/12/03 05:52:47;;;;;;;15.77;7.32;;;;;;;;;;5038259;28;20041;-79
2021/12/03 05:55:15;;;;;;;19.05;8.15;;;;;;;;;;5038789;28;20049;-80
2021/12/03 05:57:44;;;;;;;15.45;7.70;;;;;;;;;;5040411;28;20057;-80
2021/12/03 06:00:15;;;;;;;16.05;7.88;;;;;;;;;;5040103;28;20103;-80
2021/12/03 06:02:42;;;;;;;15.73;7.32;;;;;;;;;;5045262;28;20084;-79
2021/12/03 06:05:11;;;;;;;15.13;8.25;;;;;;;;;;5047976;28;20072;-80
2021/12/03 06:07:38;;;;;;;16.17;7.20;;;;;;;;;;5044673;28;20099;-79
2021/12/03 06:10:05;;;;;;;15.43;7.90;;;;;;;;;;5046499;28;20468;-79
2021/12/03 06:12:32;;;;;;;14.40;7.38;;;;;;;;;;5045783;28;20054;-80
2021/12/03 06:14:59;;;;;;;15.82;7.75;;;;;;;;;;5043784;28;20072;-79
2021/12/03 06:17:26;;;;;;;17.17;8.20;;;;;;;;;;5039319;28;20049;-80
2021/12/03 06:19:52;;;;;;;17.10;7.50;;;;;;;;;;5037331;28;20103;-79
2021/12/03 06:22:21;;;;;;;17.13;8.45;;;;;;;;;;5038401;28;20091;-79
2021/12/03 06:24:48;;;;;;;17.98;8.32;;;;;;;;;;5038475;28;20050;-79
2021/12/03 06:27:15;;;;;;;16.30;8.20;;;;;;;;;;5036315;28;20504;-80
2021/12/03 06:29:41;;;;;;;15.63;8.15;;;;;;;;;;5038039;28;20046;-79
2021/12/03 06:32:10;;;;;;;19.40;8.57;;;;;;;;;;5037772;28;20493;-79
2021/12/03 06:34:37;;;;;;;18.33;8.45;;;;;;;;;;5037549;28;20050;-79
2021/12/03 06:37:05;;;;;;;15.38;7.78;;;;;;;;;;5041277;28;20127;-80
2021/12/03 06:39:33;;;;;;;17.23;7.90;;;;;;;;;;5039045;28;20487;-79
2021/12/03 06:42:00;;;;;;;14.48;7.88;;;;;;;;;;5042074;28;20049;-79
2021/12/03 06:44:27;;;;;;;17.55;8.68;;;;;;;;;;5041378;28;20056;-78
2021/12/03 06:46:54;;;;;;;15.38;8.23;;;;;;;;;;5050497;28;20548;-79
2021/12/03 06:49:21;;;;;;;17.65;7.55;;;;;;;;;;5051771;28;20063;-79
2021/12/03 06:51:49;;;;;;;15.55;7.88;;;;;;;;;;5052634;28;20050;-79
2021/12/03 06:54:24;;;;;;;18.35;8.65;;;;;;;;;;5040256;28;20420;-80
2021/12/03 06:56:53;;;;;;;18.05;7.82;;;;;;;;;;5038571;28;20080;-79
2021/12/03 06:59:21;;;;;;;16.23;7.32;;;;;;;;;;5037037;28;20041;-80
2021/12/03 07:01:49;;;;;;;16.05;7.50;;;;;;;;;;5036190;28;20053;-80
2021/12/03 07:04:16;;;;;;;17.13;8.38;;;;;;;;;;5036228;28;20050;-79
2021/12/03 07:06:43;;;;;;;15.02;7.13;;;;;;;;;;5035736;28;20447;-80
2021/12/03 07:09:11;;;;;;;16.60;7.90;;;;;;;;;;5035569;28;20091;-80
2021/12/03 07:11:38;;;;;;;16.10;8.07;;;;;;;;;;5035958;28;20045;-79
2021/12/03 07:14:06;;;;;;;18.05;7.70;;;;;;;;;;5041208;28;20060;-79
2021/12/03 07:16:34;;;;;;;17.73;9.00;;;;;;;;;;5042140;28;20111;-79
2021/12/03 07:19:00;;;;;;;17.00;7.68;;;;;;;;;;5046778;28;20060;-79
2021/12/03 07:21:27;;;;;;;17.45;8.35;;;;;;;;;;5047177;28;20107;-79
2021/12/03 07:23:54;;;;;;;18.58;8.63;;;;;;;;;;5041921;28;20075;-79
2021/12/03 07:26:22;;;;;;;17.70;8.80;;;;;;;;;;5041355;28;20046;-79
2021/12/03 07:28:55;;;;;;;18.15;8.60;;;;;;;;;;5041481;28;20049;-79
2021/12/03 07:31:23;;;;;;;19.67;9.00;;;;;;;;;;5041025;28;20045;-79
2021/12/03 07:33:52;;;;;;;18.60;8.95;;;;;;;;;;5041272;28;20045;-79
2021/12/03 07:36:19;;;;;;;16.17;7.93;;;;;;;;;;5041166;28;20046;-78
2021/12/03 07:38:46;;;;;;;19.33;8.18;;;;;;;;;;5040847;28;20470;-79
2021/12/03 07:41:13;;;;;;;19.35;8.70;;;;;;;;;;5040282;28;20050;-79
2021/12/03 07:43:40;;;;;;;15.80;8.38;;;;;;;;;;5036609;28;20076;-79
2021/12/03 07:46:07;;;;;;;17.02;9.15;;;;;;;;;;5040203;28;20053;-79
2021/12/03 07:48:36;;;;;;;19.17;8.52;;;;;;;;;;5040492;28;20072;-79
2021/12/03 07:51:03;;;;;;;18.38;8.63;;;;;;;;;;5041210;28;20088;-79
2021/12/03 07:53:30;;;;;;;16.52;8.10;;;;;;;;;;5042767;28;20049;-79
2021/12/03 07:55:57;;;;;;;15.85;8.30;;;;;;;;;;5041305;28;20477;-79
2021/12/03 07:58:24;;;;;;;17.08;8.60;;;;;;;;;;5036852;28;20049;-79
2021/12/03 08:00:51;;;;;;;16.73;9.18;;;;;;;;;;5037290;28;20045;-80
2021/12/03 08:03:20;;;;;;;17.10;8.73;;;;;;;;;;5033870;28;20052;-79
2021/12/03 08:05:48;;;;;;;15.57;7.90;;;;;;;;;;5026815;28;20056;-80
2021/12/03 08:08:21;;;;;;;19.63;9.02;;;;;;;;;;5039878;28;20045;-78
2021/12/03 08:10:48;;;;;;;18.13;9.23;;;;;;;;;;5032671;28;20419;-79
2021/12/03 08:13:15;;;;;;;16.13;7.93;;;;;;;;;;5031892;28;20072;-79
2021/12/03 08:15:42;;;;;;;20.58;8.88;;;;;;;;;;5031337;28;20049;-79
2021/12/03 08:18:09;;;;;;;18.58;7.70;;;;;;;;;;5031605;28;20053;-79
2021/12/03 08:20:37;;;;;;;18.67;9.07;;;;;;;;;;5031540;28;20386;-79
2021/12/03 08:23:05;;;;;;;18.92;9.35;;;;;;;;;;5033377;28;20046;-79
2021/12/03 08:25:32;;;;;;;18.75;8.93;;;;;;;;;;5041235;28;20053;-78
2021/12/03 08:27:59;;;;;;;16.15;8.30;;;;;;;;;;5052370;28;20136;-78
2021/12/03 08:30:29;;;;;;;19.90;9.25;;;;;;;;;;5040293;28;20721;-79
2021/12/03 08:32:56;;;;;;;17.27;8.35;;;;;;;;;;5037268;28;20059;-80
2021/12/03 08:35:23;;;;;;;18.92;9.23;;;;;;;;;;5038358;28;20054;-79
2021/12/03 08:37:51;;;;;;;17.33;9.00;;;;;;;;;;5040644;28;20501;-79
2021/12/03 08:40:20;;;;;;;19.02;9.40;;;;;;;;;;5041343;28;20080;-79
2021/12/03 08:42:47;;;;;;;18.85;9.55;;;;;;;;;;5035645;28;20057;-80
2021/12/03 08:45:17;;;;;;;16.77;8.65;;;;;;;;;;5035646;28;20099;-80
2021/12/03 08:47:45;;;;;;;19.85;9.63;;;;;;;;;;5035946;28;20111;-80
2021/12/03 08:50:15;;;;;;;18.92;9.38;;;;;;;;;;5037706;28;20048;-80
2021/12/03 08:55:27;;;;;;;16.90;8.50;;;;;;;;;;4999729;28;20142;-78
2021/12/03 08:57:54;;;;;;;19.77;9.52;;;;;;;;;;5036458;28;20053;-79
2021/12/03 09:00:21;;;;;;;14.95;7.97;;;;;;;;;;5035728;28;20497;-79
2021/12/03 09:02:49;;;;;;;15.05;7.65;;;;;;;;;;5040594;28;20049;-79
2021/12/03 09:05:16;;;;;;;18.58;8.52;;;;;;;;;;5037757;28;20452;-79
2021/12/03 09:07:43;;;;;;;16.63;8.65;;;;;;;;;;5036388;28;20641;-79
2021/12/03 09:10:13;;;;;;;16.08;9.00;;;;;;;;;;5036294;28;20042;-79
2021/12/03 09:12:42;;;;;;;15.90;7.28;;;;;;;;;;5035126;28;20113;-79
2021/12/03 09:15:11;;;;;;;18.38;8.50;;;;;;;;;;5036011;28;20045;-78
2021/12/03 09:17:46;;;;;;;15.95;7.90;;;;;;;;;;5036050;28;20140;-79
2021/12/03 09:20:26;;;;;;;17.30;8.57;;;;;;;;;;5036141;28;20057;-78
2021/12/03 09:22:57;;;;;;;16.90;9.07;;;;;;;;;;5035914;28;20045;-79
2021/12/03 09:25:31;;;;;;;;;;;;;;;;;;5036124;28;20095;-79
2021/12/03 09:28:02;;;;;;;17.13;8.02;;;;;;;;;;5035680;28;19921;-79
2021/12/03 09:30:35;;;;;;;;;;;;;;;;;;5037738;28;20141;-78
2021/12/03 09:33:02;;;;;;;15.68;7.35;;;;;;;;;;5036643;28;19964;-78
2021/12/03 09:35:30;;;;;;;17.20;8.18;;;;;;;;;;5034744;28;20144;-78
2021/12/03 09:37:57;;;;;;;17.25;7.47;;;;;;;;;;5033891;28;20132;-78
2021/12/03 09:40:29;;;;;;;15.48;7.40;;;;;;;;;;5034722;28;20053;-78
2021/12/03 09:42:56;;;;;;;14.07;6.97;;;;;;;;;;5034461;28;20073;-78
2021/12/03 09:45:24;;;;;;;14.70;7.93;;;;;;;;;;5033716;28;20050;-78
2021/12/03 09:47:52;;;;;;;15.57;7.57;;;;;;;;;;5041215;28;20045;-78
2021/12/03 09:50:20;;;;;;;16.38;8.55;;;;;;;;;;5046370;28;20145;-77
2021/12/03 09:53:01;;;;;;;14.65;7.65;;;;;;;;;;5044811;28;20053;-78
2021/12/03 09:55:30;;;;;;;14.43;7.40;;;;;;;;;;5043582;28;20041;-79
2021/12/03 09:58:09;;;;;;;15.15;7.22;;;;;;;;;;5036421;28;20053;-80
2021/12/03 10:00:41;;;;;;;16.48;7.95;;;;;;;;;;5035276;28;20045;-79
2021/12/03 10:03:17;;;;;;;13.32;7.20;;;;;;;;;;5038962;28;20049;-84
2021/12/03 10:14:23;;;;;;;15.07;6.75;;;;;;;;;;5034194;28;20068;-79
2021/12/03 10:20:22;;;;;;;13.93;6.47;;;;;;;;;;4973757;28;20560;-79
2021/12/03 10:26:38;;;;;;;13.13;6.40;;;;;;;;;;5036324;28;20060;-80
2021/12/03 10:29:22;;;;;;;11.20;5.50;;;;;;;;;;5035925;28;20049;-79
2021/12/03 10:47:02;;;;;;;11.63;6.22;;;;;;;;;;5087560;28;20480;-68
2021/12/03 10:49:47;;;;;;;13.15;6.75;;;;;;;;;;5087906;28;20406;-68
2021/12/03 10:52:29;;;;;;;12.80;6.38;;;;;;;;;;5087443;28;20048;-68
2021/12/03 11:00:58;;;;;;;10.65;5.80;;;;;;;;;;5087264;28;20475;-67
2021/12/03 11:29:42;;;;;;;7.60;3.55;;;;;;;;;;5080869;28;20055;-67
2021/12/03 13:01:40;;;;;;;9.70;5.60;;;;;;;;;;5081428;28;20174;-61
2021/12/03 13:13:13;;;;;;;10.30;4.78;;;;;;;;;;5083231;28;20047;-61
2021/12/03 14:42:05;;;;;;;6.90;3.78;;;;;;;;;;5069626;28;20066;-60
2021/12/03 14:45:07;;;;;;;8.00;4.40;;;;;;;;;;5070678;28;20604;-60
2021/12/03 14:56:06;;;;;;;12.68;5.30;;;;;;;;;;5084945;28;20051;-60
2021/12/03 14:58:44;;;;;;;8.32;4.20;;;;;;;;;;5087106;28;20643;-60
2021/12/03 15:01:18;;;;;;;9.75;4.30;;;;;;;;;;5077999;28;20371;-60
2021/12/03 15:04:10;;;;;;;7.75;3.85;;;;;;;;;;5072999;28;20486;-59
2021/12/03 15:06:39;;;;;;;8.23;4.97;;;;;;;;;;5080938;28;20091;-59
2021/12/03 15:09:12;;;;;;;8.48;4.50;;;;;;;;;;5083429;28;20110;-59
2021/12/03 15:20:29;;;;;;;;;;;;;;;;;;5081801;28;20277;-61
2021/12/03 15:23:12;;;;;;;6.53;3.67;;;;;;;;;;5083745;28;20465;-61
2021/12/03 15:25:49;;;;;;;6.57;3.83;;;;;;;;;;5078979;28;20048;-61
2021/12/03 15:31:28;;;;;;;8.82;4.60;;;;;;;;;;5080891;28;20050;-61
2021/12/03 15:33:59;;;;;;;12.23;4.35;;;;;;;;;;5080053;28;20087;-61
2021/12/03 15:36:38;;;;;;;7.43;3.97;;;;;;;;;;5081046;28;20170;-60
2021/12/03 15:39:34;;;;;;;8.52;4.13;;;;;;;;;;5081662;28;20503;-62
2021/12/03 16:03:28;;;;;;;13.80;7.10;;;;;;;;;;5090212;28;20251;-60
2021/12/03 16:04:20;;;;;;;13.85;6.25;;;;;;;;;;5094088;28;20135;-62
2021/12/03 16:07:02;;;;;;;14.68;8.93;;;;;;;;;;5093795;28;20102;-61
2021/12/03 16:09:48;;;;;;;14.95;7.20;;;;;;;;;;5093809;28;20519;-61
2021/12/03 16:12:24;;;;;;;14.02;6.57;;;;;;;;;;5093637;28;20048;-62
2021/12/03 16:17:59;;;;;;;12.98;7.38;;;;;;;;;;5092252;28;20048;-62
2021/12/03 16:26:29;;;;;;;16.27;8.68;;;;;;;;;;5059537;28;20052;-62
2021/12/03 16:45:49;;;;;;;15.35;8.00;;;;;;;;;;5092931;28;20557;-60
2021/12/03 16:53:41;;;;;;;16.33;8.00;;;;;;;;;;5090531;28;20052;-60
2021/12/03 16:56:10;;;;;;;14.77;7.25;;;;;;;;;;5092864;28;20087;-60
2021/12/03 16:58:46;;;;;;;12.70;5.85;;;;;;;;;;5093054;28;20128;-58
2021/12/03 17:01:21;;;;;;;13.27;7.30;;;;;;;;;;5092982;28;20491;-60
2021/12/03 17:03:51;;;;;;;13.20;6.28;;;;;;;;;;5092470;28;20059;-60
2021/12/03 17:09:21;;;;;;;11.07;5.43;;;;;;;;;;5092292;28;20626;-58
2021/12/03 17:12:05;;;;;;;10.55;5.55;;;;;;;;;;5092087;28;20056;-59
2021/12/03 17:14:50;;;;;;;8.48;4.68;;;;;;;;;;5092025;28;20285;-60
2021/12/03 17:47:57;;;;;;;10.52;4.90;;;;;;;;;;5092067;28;20135;-60
2021/12/03 17:50:57;;;;;;;10.25;5.18;;;;;;;;;;5091966;28;20500;-57
2021/12/03 17:56:12;;;;;;;12.32;5.63;;;;;;;;;;5111934;28;20050;-65
2021/12/03 17:58:42;;;;;;;12.15;6.43;;;;;;;;;;5111906;28;20081;-65
2021/12/03 18:01:14;;;;;;;10.77;5.38;;;;;;;;;;5111678;28;20054;-64
2021/12/03 18:03:48;;;;;;;11.50;5.57;;;;;;;;;;5111531;28;20055;-66
2021/12/03 18:45:29;;;;;;;10.50;6.57;;;;;;;;;;5063004;28;20090;-70
2021/12/03 18:53:46;;;;;;;12.93;6.97;;;;;;;;;;5104864;28;20051;-66
2021/12/03 18:56:17;;;;;;;11.80;7.13;;;;;;;;;;5111003;28;20044;-66
2021/12/03 18:58:45;;;;;;;12.07;6.82;;;;;;;;;;5111201;28;20080;-65
2021/12/03 19:01:14;;;;;;;11.63;6.70;;;;;;;;;;5111203;28;20131;-67
2021/12/03 19:03:58;;;;;;;14.25;6.75;;;;;;;;;;5111017;28;20047;-66
2021/12/03 19:06:27;;;;;;;12.38;6.90;;;;;;;;;;5111507;28;20067;-69
2021/12/03 19:08:57;;;;;;;11.90;7.03;;;;;;;;;;5110858;28;20105;-67
2021/12/03 19:11:27;;;;;;;13.27;7.35;;;;;;;;;;5110790;28;20138;-66
2021/12/03 19:13:54;;;;;;;12.90;6.30;;;;;;;;;;5111506;28;20135;-65
2021/12/03 19:16:24;;;;;;;11.07;6.95;;;;;;;;;;5110881;28;20134;-65
2021/12/03 19:18:54;;;;;;;10.35;5.93;;;;;;;;;;5110526;28;20059;-65
2021/12/03 19:21:24;;;;;;;12.27;6.63;;;;;;;;;;5110704;28;20578;-67
2021/12/03 19:23:51;;;;;;;12.70;6.43;;;;;;;;;;5111070;28;20047;-68
2021/12/03 19:26:19;;;;;;;11.93;6.38;;;;;;;;;;5111491;28;20048;-66
2021/12/03 19:28:47;;;;;;;12.68;6.97;;;;;;;;;;5111260;28;20052;-67
2021/12/03 19:31:14;;;;;;;15.13;7.07;;;;;;;;;;5111363;28;20083;-66
2021/12/03 19:33:43;;;;;;;11.07;5.97;;;;;;;;;;5111335;28;20427;-67
2021/12/03 19:36:10;;;;;;;12.40;6.32;;;;;;;;;;5113634;28;20435;-66
2021/12/03 19:38:40;;;;;;;10.48;6.07;;;;;;;;;;5114979;28;20079;-67
2021/12/03 19:41:14;;;;;;;10.75;6.40;;;;;;;;;;5114968;28;20462;-67
2021/12/03 19:43:44;;;;;;;11.73;6.88;;;;;;;;;;5114945;28;20087;-67
2021/12/03 19:46:17;;;;;;;11.70;6.78;;;;;;;;;;5115703;28;20428;-68
2021/12/03 19:48:50;;;;;;;13.60;6.53;;;;;;;;;;5115022;28;20523;-67
2021/12/03 19:51:20;;;;;;;9.35;5.97;;;;;;;;;;5114523;28;20044;-67
2021/12/03 19:53:55;;;;;;;11.77;5.93;;;;;;;;;;5114656;28;20102;-67
2021/12/03 19:56:22;;;;;;;12.80;6.38;;;;;;;;;;5114536;28;20506;-66
2021/12/03 19:58:49;;;;;;;12.13;6.50;;;;;;;;;;5114495;28;20050;-67
2021/12/03 20:01:16;;;;;;;16.77;9.85;;;;;;;;;;5114355;28;20047;-67
2021/12/03 20:03:45;;;;;;;13.13;6.28;;;;;;;;;;5114365;28;20448;-66
2021/12/03 20:06:12;;;;;;;10.57;5.97;;;;;;;;;;5114474;28;20086;-66
2021/12/03 20:08:39;;;;;;;10.60;6.07;;;;;;;;;;5114585;28;20117;-66
2021/12/03 20:11:08;;;;;;;10.63;5.82;;;;;;;;;;5114091;28;20047;-66
2021/12/03 20:13:35;;;;;;;11.82;5.85;;;;;;;;;;5114217;28;20150;-66
2021/12/03 20:16:09;;;;;;;10.88;6.05;;;;;;;;;;5114008;28;20051;-66
2021/12/03 20:18:40;;;;;;;10.00;6.13;;;;;;;;;;5113832;28;20047;-66
2021/12/03 20:21:10;;;;;;;16.45;9.65;;;;;;;;;;5114005;28;20044;-67
2021/12/03 20:23:42;;;;;;;15.77;9.25;;;;;;;;;;5114519;28;20416;-68
2021/12/03 20:29:12;;;;;;;11.10;5.88;;;;;;;;;;5030440;28;20088;-68
2021/12/03 20:31:44;;;;;;;9.40;5.50;;;;;;;;;;5097879;28;20564;-68
2021/12/03 20:36:56;;;;;;;10.20;6.47;;;;;;;;;;5109591;28;20108;-65
2021/12/03 20:39:25;;;;;;;9.90;5.93;;;;;;;;;;5113731;28;20530;-67
2021/12/03 20:42:02;;;;;;;8.40;5.68;;;;;;;;;;5113135;28;20047;-68
2021/12/03 20:50:35;;;;;;;8.70;5.55;;;;;;;;;;5104250;28;20054;-67
2021/12/03 20:53:15;;;;;;;11.07;5.45;;;;;;;;;;5113178;28;20069;-67
2021/12/03 21:09:27;;;;;;;7.35;4.60;;;;;;;;;;5112776;28;20086;-67
2021/12/03 21:12:02;;;;;;;12.00;6.65;;;;;;;;;;5113027;28;20108;-67
2021/12/03 21:14:31;;;;;;;9.88;6.38;;;;;;;;;;5113560;28;20054;-67
2021/12/03 21:17:06;;;;;;;9.25;5.05;;;;;;;;;;5112923;28;20043;-68
2021/12/03 21:19:42;;;;;;;9.45;4.95;;;;;;;;;;5113140;28;20043;-66
2021/12/03 21:22:13;;;;;;;8.13;4.93;;;;;;;;;;5112577;28;20048;-67
2021/12/03 21:24:43;;;;;;;9.05;4.53;;;;;;;;;;5112883;28;20380;-65
2021/12/03 21:27:15;;;;;;;8.40;5.20;;;;;;;;;;5112544;28;20051;-66
2021/12/03 21:30:10;;;;;;;7.00;4.90;;;;;;;;;;5112658;28;20048;-66
2021/12/03 21:32:45;;;;;;;7.93;5.38;;;;;;;;;;5112690;28;20039;-66
2021/12/03 21:40:59;;;;;;;9.90;4.80;;;;;;;;;;5101490;28;20048;-68
2021/12/03 21:43:28;;;;;;;8.15;4.70;;;;;;;;;;5112767;28;20047;-67
2021/12/03 21:45:56;;;;;;;9.48;4.68;;;;;;;;;;5112661;28;20055;-67
2021/12/03 21:48:23;;;;;;;7.95;5.03;;;;;;;;;;5112624;28;20074;-67
2021/12/03 21:50:50;;;;;;;9.38;4.28;;;;;;;;;;5112811;28;20499;-67
2021/12/03 21:53:17;;;;;;;8.15;4.78;;;;;;;;;;5112016;28;20061;-67
2021/12/03 21:55:47;;;;;;;9.60;5.28;;;;;;;;;;5111834;28;20377;-66
2021/12/03 21:58:15;;;;;;;8.02;4.18;;;;;;;;;;5111043;28;20094;-66
2021/12/03 22:00:42;;;;;;;7.97;4.32;;;;;;;;;;5112055;28;20044;-66